Time;durP1;ratioP1;P1;durP2;ratioP2;P2;SDS_P1;SDS_P2;PMS_P1;PMS_P2;Temp;Humidity;BMP_temperature;BMP_pressure;BME280_temperature;BME280_humidity;BME280_pressure;Samples;Min_cycle;Max_cycle;Signal;HPM_P1;HPM_P2
2021/06/24 00:02:14;;;;;;;0.50;0.50;;;;;;;19.52;100.00;100445.78;5012286;28;20861;-51
2021/06/24 00:04:41;;;;;;;0.93;0.83;;;;;;;19.50;100.00;100449.56;5012423;28;20462;-52
2021/06/24 00:07:08;;;;;;;0.47;0.30;;;;;;;19.57;100.00;100450.06;5012353;28;20852;-51
2021/06/24 00:09:35;;;;;;;0.50;0.30;;;;;;;19.32;100.00;100464.16;5012247;28;20423;-52
2021/06/24 00:12:02;;;;;;;0.50;0.40;;;;;;;19.23;100.00;100461.09;5012211;28;20796;-51
2021/06/24 00:14:29;;;;;;;1.13;1.13;;;;;;;19.32;100.00;100462.31;5012251;28;20467;-51
2021/06/24 00:16:55;;;;;;;2.10;0.53;;;;;;;19.42;100.00;100451.84;5011774;28;20467;-51
2021/06/24 00:19:22;;;;;;;0.50;0.40;;;;;;;19.34;100.00;100448.78;5012375;28;20452;-51
2021/06/24 00:21:49;;;;;;;0.50;0.20;;;;;;;19.29;100.00;100450.88;5011977;28;20509;-51
2021/06/24 00:24:15;;;;;;;0.50;0.20;;;;;;;19.21;100.00;100451.38;5011981;28;20423;-52
2021/06/24 00:26:43;;;;;;;0.50;0.40;;;;;;;19.18;100.00;100447.00;5012061;28;20489;-51
2021/06/24 00:29:09;;;;;;;0.40;0.20;;;;;;;19.40;100.00;100443.00;5012073;28;20449;-51
2021/06/24 00:31:36;;;;;;;0.40;0.30;;;;;;;19.10;100.00;100446.63;5002203;28;20451;-52
2021/06/24 00:34:03;;;;;;;0.40;0.20;;;;;;;18.97;100.00;100437.56;5002056;28;20868;-51
2021/06/24 00:36:30;;;;;;;0.63;0.60;;;;;;;18.96;100.00;100434.97;5011961;28;20423;-51
2021/06/24 00:38:56;;;;;;;0.40;0.20;;;;;;;19.04;100.00;100430.81;5011802;28;21071;-52
2021/06/24 00:41:24;;;;;;;1.23;1.17;;;;;;;19.05;100.00;100426.31;4997624;28;20484;-51
2021/06/24 00:43:50;;;;;;;0.40;0.20;;;;;;;18.94;100.00;100424.28;5001075;28;20465;-52
2021/06/24 00:46:17;;;;;;;0.47;0.20;;;;;;;18.88;100.00;100417.44;4996366;28;20482;-52
2021/06/24 00:48:44;;;;;;;0.47;0.30;;;;;;;18.70;100.00;100413.16;5011892;28;20423;-52
2021/06/24 00:51:11;;;;;;;0.43;0.20;;;;;;;18.76;100.00;100420.00;5011461;28;20459;-51
2021/06/24 00:53:37;;;;;;;0.60;0.60;;;;;;;18.76;100.00;100414.59;5011829;28;20431;-52
2021/06/24 00:56:17;;;;;;;0.40;0.20;;;;;;;18.77;100.00;100414.50;5011807;28;20424;-51
2021/06/24 00:58:43;;;;;;;0.50;0.30;;;;;;;18.86;100.00;100411.28;4990082;28;20487;-51
2021/06/24 01:01:10;;;;;;;0.40;0.30;;;;;;;18.81;100.00;100405.31;5011221;28;20472;-52
2021/06/24 01:03:37;;;;;;;0.50;0.30;;;;;;;18.66;100.00;100406.25;5011764;28;20506;-51
2021/06/24 01:06:04;;;;;;;0.50;0.40;;;;;;;18.79;100.00;100403.69;5012631;28;20474;-51
2021/06/24 01:08:30;;;;;;;0.70;0.70;;;;;;;18.57;100.00;100399.53;5015617;28;21394;-51
2021/06/24 01:10:57;;;;;;;0.50;0.20;;;;;;;18.29;100.00;100397.63;5014412;28;20446;-52
2021/06/24 01:13:24;;;;;;;0.50;0.20;;;;;;;18.29;100.00;100394.06;4998291;28;20440;-51
2021/06/24 01:15:51;;;;;;;0.50;0.30;;;;;;;18.43;100.00;100394.09;5014925;28;20526;-51
2021/06/24 01:18:18;;;;;;;1.03;0.93;;;;;;;18.35;100.00;100394.53;5015261;28;20994;-51
2021/06/24 01:20:45;;;;;;;0.50;0.20;;;;;;;18.44;100.00;100398.53;4989944;28;20496;-51
2021/06/24 01:23:11;;;;;;;0.50;0.30;;;;;;;18.56;100.00;100403.19;5015231;28;20875;-53
2021/06/24 01:25:38;;;;;;;0.50;0.20;;;;;;;18.72;100.00;100405.00;4989576;28;20452;-51
2021/06/24 01:28:08;;;;;;;0.40;0.20;;;;;;;18.75;100.00;100410.19;5015502;28;20445;-51
2021/06/24 01:30:37;;;;;;;0.60;0.57;;;;;;;18.69;100.00;100408.75;5010813;28;20452;-51
2021/06/24 01:33:05;;;;;;;0.43;0.30;;;;;;;18.80;100.00;100408.97;5010065;28;20452;-51
2021/06/24 01:35:33;;;;;;;2.97;0.60;;;;;;;18.80;100.00;100405.41;5008180;28;20936;-52
2021/06/24 01:38:02;;;;;;;0.40;0.20;;;;;;;18.76;100.00;100404.69;5014677;28;20812;-51
2021/06/24 01:40:30;;;;;;;0.50;0.50;;;;;;;18.55;100.00;100400.59;5005773;28;21175;-51
2021/06/24 01:42:58;;;;;;;0.67;0.60;;;;;;;18.37;100.00;100397.19;5011565;28;20829;-51
2021/06/24 01:45:25;;;;;;;0.50;0.30;;;;;;;18.38;100.00;100392.66;5010135;28;20452;-51
2021/06/24 01:47:53;;;;;;;0.40;0.30;;;;;;;18.29;100.00;100392.22;4998371;28;20456;-52
2021/06/24 01:50:20;;;;;;;0.70;0.70;;;;;;;18.25;100.00;100388.00;5014746;28;20484;-52
2021/06/24 01:52:48;;;;;;;0.60;0.60;;;;;;;18.23;100.00;100384.53;5014428;28;20459;-51
2021/06/24 01:55:16;;;;;;;0.50;0.20;;;;;;;18.34;100.00;100386.56;5015110;28;20510;-52
2021/06/24 01:57:44;;;;;;;0.63;0.57;;;;;;;18.43;100.00;100385.16;5014491;28;20495;-51
2021/06/24 02:00:13;;;;;;;0.40;0.20;;;;;;;18.63;100.00;100392.91;5014725;28;20451;-51
2021/06/24 02:02:41;;;;;;;0.50;0.20;;;;;;;18.69;100.00;100391.72;5014568;28;20456;-51
2021/06/24 02:05:09;;;;;;;0.70;0.70;;;;;;;18.81;100.00;100396.38;5014373;28;20434;-51
2021/06/24 02:07:42;;;;;;;0.50;0.30;;;;;;;18.63;100.00;100392.91;5000196;28;20856;-53
2021/06/24 02:10:12;;;;;;;0.50;0.30;;;;;;;18.62;100.00;100383.97;5014431;28;20798;-53
2021/06/24 02:12:40;;;;;;;0.47;0.27;;;;;;;18.63;100.00;100393.81;4989828;28;20452;-52
2021/06/24 02:15:09;;;;;;;0.50;0.30;;;;;;;18.66;100.00;100394.59;5014373;28;20802;-51
2021/06/24 02:17:36;;;;;;;0.50;0.20;;;;;;;18.74;100.00;100393.16;5013781;28;20508;-51
2021/06/24 02:20:05;;;;;;;0.40;0.20;;;;;;;18.61;100.00;100390.31;5010605;28;20455;-51
2021/06/24 02:22:31;;;;;;;0.50;0.30;;;;;;;18.59;100.00;100391.38;4991375;28;20488;-51
2021/06/24 02:24:58;;;;;;;2.93;1.43;;;;;;;18.61;100.00;100400.22;5009770;28;20448;-51
2021/06/24 02:27:25;;;;;;;0.50;0.50;;;;;;;18.67;100.00;100394.50;5014318;28;20483;-52
2021/06/24 02:29:52;;;;;;;0.40;0.20;;;;;;;18.70;100.00;100398.84;5013835;28;20468;-51
2021/06/24 02:32:19;;;;;;;1.03;1.03;;;;;;;18.80;100.00;100394.63;5014431;28;20475;-52
2021/06/24 02:34:46;;;;;;;1.27;1.17;;;;;;;18.81;100.00;100396.38;5014749;28;20466;-51
2021/06/24 02:37:14;;;;;;;0.40;0.20;;;;;;;18.81;100.00;100394.53;5014205;28;20934;-52
2021/06/24 02:39:41;;;;;;;0.40;0.20;;;;;;;18.79;100.00;100384.81;5011143;28;20789;-51
2021/06/24 02:42:08;;;;;;;0.50;0.30;;;;;;;18.72;100.00;100383.44;5003669;28;20423;-52
2021/06/24 02:44:34;;;;;;;0.57;0.40;;;;;;;18.61;100.00;100384.91;5013679;28;20876;-52
2021/06/24 02:47:01;;;;;;;0.50;0.20;;;;;;;18.49;100.00;100372.19;5012484;28;21730;-52
2021/06/24 02:49:28;;;;;;;0.70;0.70;;;;;;;18.50;100.00;100373.97;5013707;28;20444;-51
2021/06/24 02:51:55;;;;;;;0.60;0.60;;;;;;;18.37;100.00;100385.53;5013446;28;20443;-52
2021/06/24 02:54:21;;;;;;;0.50;0.30;;;;;;;18.26;100.00;100370.91;5013462;28;20456;-51
2021/06/24 02:56:48;;;;;;;0.50;0.33;;;;;;;18.22;100.00;100372.00;5013807;28;20809;-52
2021/06/24 02:59:15;;;;;;;0.50;0.30;;;;;;;18.18;100.00;100372.28;5005738;28;20488;-51
2021/06/24 03:01:41;;;;;;;0.40;0.20;;;;;;;18.32;100.00;100377.72;4987532;28;20477;-52
2021/06/24 03:04:08;;;;;;;0.50;0.30;;;;;;;18.34;100.00;100367.72;5010697;28;20453;-52
2021/06/24 03:06:35;;;;;;;0.40;0.20;;;;;;;18.35;100.00;100364.06;5013420;28;20452;-52
2021/06/24 03:09:06;;;;;;;0.40;0.20;;;;;;;18.38;100.00;100365.75;5013264;28;20448;-51
2021/06/24 03:11:33;;;;;;;0.77;0.77;;;;;;;18.45;100.00;100372.47;5013226;28;20509;-52
2021/06/24 03:14:00;;;;;;;1.70;1.60;;;;;;;18.59;100.00;100373.38;5013173;28;20489;-51
2021/06/24 03:16:26;;;;;;;14.63;1.53;;;;;;;18.65;100.00;100374.88;5013434;28;20497;-51
2021/06/24 03:18:53;;;;;;;0.50;0.40;;;;;;;18.67;100.00;100374.78;5013226;28;20499;-52
2021/06/24 03:21:20;;;;;;;0.60;0.60;;;;;;;18.47;100.00;100375.94;5012667;28;21048;-51
2021/06/24 03:23:47;;;;;;;0.73;0.67;;;;;;;18.71;100.00;100379.03;5012427;28;20448;-52
2021/06/24 03:26:14;;;;;;;0.40;0.30;;;;;;;18.47;100.00;100374.13;5012969;28;20453;-52
2021/06/24 03:28:40;;;;;;;0.40;0.20;;;;;;;18.50;100.00;100364.97;5011574;28;20453;-51
2021/06/24 03:31:07;;;;;;;0.50;0.30;;;;;;;18.37;100.00;100372.09;5013820;28;20896;-52
2021/06/24 03:33:34;;;;;;;0.97;0.97;;;;;;;18.41;100.00;100366.41;5012905;28;20514;-51
2021/06/24 03:36:01;;;;;;;0.50;0.30;;;;;;;18.55;100.00;100366.47;5000811;28;20567;-52
2021/06/24 03:38:28;;;;;;;0.40;0.30;;;;;;;18.51;100.00;100364.06;4990871;28;20471;-52
2021/06/24 03:40:55;;;;;;;0.40;0.20;;;;;;;18.53;100.00;100368.38;4998340;28;20444;-52
2021/06/24 03:43:22;;;;;;;0.60;0.60;;;;;;;18.46;100.00;100368.81;5012585;28;20443;-51
2021/06/24 03:45:48;;;;;;;0.40;0.20;;;;;;;18.50;100.00;100362.28;5012078;28;20456;-52
2021/06/24 03:48:15;;;;;;;0.50;0.50;;;;;;;18.46;100.00;100371.53;5012444;28;20427;-52
2021/06/24 03:50:42;;;;;;;0.40;0.20;;;;;;;18.63;100.00;100374.06;4998886;28;20848;-52
2021/06/24 03:53:08;;;;;;;0.60;0.50;;;;;;;18.67;100.00;100383.75;4994902;28;20427;-52
2021/06/24 03:55:44;;;;;;;10.43;1.60;;;;;;;18.65;100.00;100380.28;5012124;28;20937;-53
2021/06/24 03:58:13;;;;;;;0.73;0.63;;;;;;;18.68;100.00;100379.22;4988904;28;20840;-52
2021/06/24 04:00:42;;;;;;;0.40;0.20;;;;;;;18.60;100.00;100375.09;5012376;28;20477;-52
2021/06/24 04:03:09;;;;;;;0.50;0.50;;;;;;;18.47;100.00;100381.31;5012626;28;20897;-52
2021/06/24 04:05:36;;;;;;;0.40;0.20;;;;;;;18.38;100.00;100377.38;5011913;28;20423;-52
2021/06/24 04:08:05;;;;;;;2.00;1.90;;;;;;;18.43;100.00;100377.97;5011864;28;20423;-52
2021/06/24 04:10:32;;;;;;;0.40;0.20;;;;;;;18.46;100.00;100388.53;5011998;28;20443;-52
2021/06/24 04:12:59;;;;;;;0.50;0.30;;;;;;;18.41;100.00;100393.34;5012106;28;20451;-52
2021/06/24 04:15:28;;;;;;;0.40;0.30;;;;;;;18.55;100.00;100390.69;5011837;28;20464;-52
2021/06/24 04:17:55;;;;;;;0.43;0.20;;;;;;;18.50;100.00;100386.53;5010560;28;20457;-52
2021/06/24 04:20:22;;;;;;;0.40;0.20;;;;;;;18.37;100.00;100390.94;5011569;28;20500;-52
2021/06/24 04:22:49;;;;;;;0.50;0.30;;;;;;;18.42;100.00;100386.13;5010180;28;20503;-52
2021/06/24 04:25:17;;;;;;;0.50;0.30;;;;;;;18.31;100.00;100392.13;5011778;28;20471;-52
2021/06/24 04:27:46;;;;;;;0.40;0.20;;;;;;;18.50;100.00;100391.91;5011712;28;20452;-51
2021/06/24 04:30:14;;;;;;;0.40;0.30;;;;;;;18.35;100.00;100391.84;5011576;28;20884;-52
2021/06/24 04:32:40;;;;;;;0.47;0.20;;;;;;;18.47;100.00;100389.41;5011668;28;20431;-52
2021/06/24 04:35:08;;;;;;;0.50;0.30;;;;;;;18.39;100.00;100379.09;5011499;28;20511;-52
2021/06/24 04:37:35;;;;;;;0.50;0.30;;;;;;;18.42;100.00;100386.13;5010347;28;20457;-52
2021/06/24 04:40:03;;;;;;;2.30;1.00;;;;;;;18.32;100.00;100381.28;5006090;28;21004;-51
2021/06/24 04:42:30;;;;;;;0.60;0.60;;;;;;;18.21;100.00;100381.03;5003760;28;20510;-51
2021/06/24 04:44:57;;;;;;;0.40;0.20;;;;;;;18.31;100.00;100376.84;5011394;28;20522;-51
2021/06/24 04:47:24;;;;;;;0.40;0.20;;;;;;;18.49;100.00;100380.28;5010791;28;20456;-52
2021/06/24 04:49:50;;;;;;;0.40;0.20;;;;;;;18.45;100.00;100375.16;5012348;28;20475;-51
2021/06/24 04:52:17;;;;;;;0.97;0.90;;;;;;;18.96;100.00;100379.25;5012032;28;20449;-53
2021/06/24 04:54:45;;;;;;;0.40;0.20;;;;;;;19.10;100.00;100373.00;5011787;28;20938;-51
2021/06/24 04:57:12;;;;;;;0.40;0.20;;;;;;;19.12;100.00;100369.25;5012166;28;20460;-52
2021/06/24 04:59:39;;;;;;;0.70;0.70;;;;;;;19.30;100.00;100377.13;4984355;28;20492;-51
2021/06/24 05:02:06;;;;;;;0.40;0.27;;;;;;;18.93;100.00;100376.75;5011991;28;20431;-51
2021/06/24 05:04:32;;;;;;;0.40;0.20;;;;;;;19.19;100.00;100381.41;5011652;28;20448;-51
2021/06/24 05:07:07;;;;;;;2.10;1.90;;;;;;;19.15;100.00;100370.88;5011811;28;20449;-51
2021/06/24 05:09:38;;;;;;;0.50;0.30;;;;;;;19.46;100.00;100369.78;5011746;28;20502;-51
2021/06/24 05:12:07;;;;;;;15.57;1.27;;;;;;;19.17;100.00;100371.66;5012012;28;20445;-52
2021/06/24 05:14:34;;;;;;;0.40;0.20;;;;;;;18.90;100.00;100369.72;5011809;28;20452;-51
2021/06/24 05:17:00;;;;;;;0.40;0.20;;;;;;;19.04;100.00;100363.47;5011690;28;20453;-51
2021/06/24 05:19:28;;;;;;;0.97;0.97;;;;;;;19.03;100.00;100368.94;5011915;28;20570;-52
2021/06/24 05:21:55;;;;;;;0.50;0.30;;;;;;;18.83;100.00;100360.28;5011791;28;20514;-51
2021/06/24 05:24:21;;;;;;;0.50;0.40;;;;;;;18.78;100.00;100358.84;5011794;28;20502;-51
2021/06/24 05:26:48;;;;;;;0.40;0.30;;;;;;;18.76;100.00;100352.66;5011790;28;20886;-51
2021/06/24 05:29:15;;;;;;;0.50;0.30;;;;;;;18.67;100.00;100356.81;5011836;28;20499;-52
2021/06/24 05:31:41;;;;;;;0.40;0.20;;;;;;;18.67;100.00;100346.03;5011625;28;20477;-51
2021/06/24 05:34:08;;;;;;;2.63;2.40;;;;;;;18.45;100.00;100351.81;5012005;28;20461;-51
2021/06/24 05:36:35;;;;;;;1.13;1.13;;;;;;;18.60;100.00;100352.72;5010309;28;20475;-51
2021/06/24 05:39:02;;;;;;;0.43;0.20;;;;;;;18.46;100.00;100356.22;5011967;28;20503;-51
2021/06/24 05:41:29;;;;;;;0.80;0.80;;;;;;;18.56;100.00;100354.72;4998132;28;20491;-52
2021/06/24 05:43:55;;;;;;;0.50;0.20;;;;;;;18.43;100.00;100351.03;5012744;28;20431;-53
2021/06/24 05:46:22;;;;;;;0.40;0.20;;;;;;;18.41;100.00;100344.88;5010309;28;20496;-52
2021/06/24 05:48:51;;;;;;;0.50;0.30;;;;;;;18.41;100.00;100352.97;5011850;28;20449;-52
2021/06/24 05:51:18;;;;;;;1.40;1.40;;;;;;;18.38;100.00;100358.53;5011347;28;20492;-52
2021/06/24 05:53:45;;;;;;;0.40;0.30;;;;;;;18.50;100.00;100352.41;5014767;28;20792;-52
2021/06/24 05:56:12;;;;;;;0.40;0.20;;;;;;;18.51;100.00;100354.16;5015099;28;20479;-53
2021/06/24 05:58:38;;;;;;;0.40;0.20;;;;;;;18.56;100.00;100359.25;5014809;28;21046;-53
2021/06/24 06:01:05;;;;;;;0.70;0.70;;;;;;;18.51;100.00;100353.28;5014626;28;20860;-52
2021/06/24 06:03:32;;;;;;;0.67;0.67;;;;;;;18.40;100.00;100353.06;5014780;28;20444;-52
2021/06/24 06:05:58;;;;;;;0.40;0.37;;;;;;;18.50;100.00;100349.72;5014671;28;20479;-53
2021/06/24 06:08:27;;;;;;;0.40;0.20;;;;;;;18.66;100.00;100351.53;5014759;28;20502;-52
2021/06/24 06:10:54;;;;;;;2.20;2.10;;;;;;;18.67;100.00;100358.63;5014710;28;20481;-53
2021/06/24 06:13:24;;;;;;;0.40;0.30;;;;;;;18.65;100.00;100358.72;5015135;28;20448;-52
2021/06/24 06:15:51;;;;;;;0.40;0.30;;;;;;;18.58;100.00;100358.19;5014590;28;21020;-52
2021/06/24 06:18:23;;;;;;;0.40;0.20;;;;;;;18.44;100.00;100355.47;5014824;28;20452;-52
2021/06/24 06:20:50;;;;;;;0.40;0.20;;;;;;;18.34;100.00;100354.28;5014737;28;20527;-52
2021/06/24 06:23:20;;;;;;;0.50;0.40;;;;;;;18.47;100.00;100355.28;5014371;28;20449;-52
2021/06/24 06:25:48;;;;;;;1.03;1.03;;;;;;;18.17;100.00;100349.91;5014435;28;20482;-52
2021/06/24 06:28:16;;;;;;;0.40;0.20;;;;;;;18.58;100.00;100363.56;5014478;28;20448;-52
2021/06/24 06:30:46;;;;;;;0.50;0.50;;;;;;;18.58;100.00;100360.00;5014478;28;20989;-52
2021/06/24 06:33:14;;;;;;;0.40;0.30;;;;;;;18.46;100.00;100358.06;5014253;28;20954;-52
2021/06/24 06:35:41;;;;;;;0.40;0.30;;;;;;;18.37;100.00;100362.19;5014423;28;20448;-52
2021/06/24 06:38:08;;;;;;;0.40;0.20;;;;;;;18.49;100.00;100357.88;5014266;28;20460;-53
2021/06/24 06:40:35;;;;;;;0.97;0.97;;;;;;;18.63;100.00;100358.78;5004619;28;20493;-53
2021/06/24 06:43:02;;;;;;;0.40;0.20;;;;;;;18.69;100.00;100362.97;5011142;28;20449;-52
2021/06/24 06:45:30;;;;;;;0.83;0.83;;;;;;;18.64;100.00;100365.94;5014908;28;20452;-53
2021/06/24 06:47:59;;;;;;;0.50;0.30;;;;;;;18.85;100.00;100366.44;5012569;28;20925;-52
2021/06/24 06:50:26;;;;;;;0.50;0.30;;;;;;;19.11;100.00;100363.97;5013863;28;20480;-53
2021/06/24 06:52:53;;;;;;;1.47;1.47;;;;;;;19.05;100.00;100364.31;5013657;28;20895;-52
2021/06/24 06:55:20;;;;;;;0.63;0.63;;;;;;;19.05;100.00;100359.84;5013766;28;21020;-52
2021/06/24 06:57:47;;;;;;;0.40;0.20;;;;;;;18.75;100.00;100361.72;5014036;28;20449;-52
2021/06/24 07:00:16;;;;;;;0.40;0.20;;;;;;;18.67;100.00;100359.50;5013892;28;20496;-52
2021/06/24 07:02:42;;;;;;;0.40;0.20;;;;;;;18.70;100.00;100361.13;5013429;28;20448;-52
2021/06/24 07:05:10;;;;;;;2.10;0.80;;;;;;;18.68;100.00;100354.97;5012827;28;20415;-53
2021/06/24 07:07:37;;;;;;;0.53;0.53;;;;;;;18.77;100.00;100359.78;5013429;28;21111;-53
2021/06/24 07:10:04;;;;;;;0.73;0.73;;;;;;;18.55;100.00;100353.00;5013807;28;20860;-53
2021/06/24 07:12:31;;;;;;;0.40;0.20;;;;;;;18.68;100.00;100358.53;5013932;28;20471;-53
2021/06/24 07:14:58;;;;;;;1.13;1.13;;;;;;;18.79;100.00;100360.59;5012843;28;20452;-53
2021/06/24 07:17:25;;;;;;;2.30;1.63;;;;;;;19.03;100.00;100359.03;5013799;28;20869;-54
2021/06/24 07:19:52;;;;;;;0.40;0.20;;;;;;;19.40;100.00;100360.28;5013781;28;20571;-53
2021/06/24 07:22:18;;;;;;;0.40;0.20;;;;;;;19.01;100.00;100371.75;5013633;28;20452;-53
2021/06/24 07:24:46;;;;;;;0.40;0.30;;;;;;;18.92;100.00;100369.63;5013501;28;20803;-53
2021/06/24 07:27:13;;;;;;;0.50;0.30;;;;;;;19.28;100.00;100362.88;5013521;28;20515;-52
2021/06/24 07:29:40;;;;;;;12.03;2.10;;;;;;;19.16;100.00;100353.75;5013399;28;20448;-53
2021/06/24 07:32:07;;;;;;;0.40;0.20;;;;;;;19.31;100.00;100350.06;5012361;28;20461;-53
2021/06/24 07:34:34;;;;;;;0.40;0.20;;;;;;;19.30;100.00;100363.66;5013287;28;21004;-53
2021/06/24 07:37:01;;;;;;;0.50;0.40;;;;;;;19.22;100.00;100359.63;5013790;28;20436;-53
2021/06/24 07:39:28;;;;;;;0.40;0.20;;;;;;;19.27;100.00;100358.47;5012245;28;20479;-52
2021/06/24 07:41:54;;;;;;;0.40;0.20;;;;;;;19.32;100.00;100357.19;5001083;28;20499;-53
2021/06/24 07:44:21;;;;;;;0.50;0.40;;;;;;;19.24;100.00;100362.22;5013067;28;21049;-53
2021/06/24 07:46:48;;;;;;;1.00;1.00;;;;;;;19.16;100.00;100360.00;5011220;28;20976;-53
2021/06/24 07:49:14;;;;;;;1.37;1.13;;;;;;;18.96;100.00;100363.09;5011743;28;20456;-52
2021/06/24 07:51:41;;;;;;;0.40;0.20;;;;;;;19.27;100.00;100362.03;5012950;28;20476;-53
2021/06/24 07:54:08;;;;;;;0.83;0.83;;;;;;;19.20;100.00;100358.00;5012574;28;20430;-53
2021/06/24 07:56:34;;;;;;;0.40;0.20;;;;;;;19.19;100.00;100359.84;5013075;28;20478;-52
2021/06/24 07:59:03;;;;;;;0.50;0.50;;;;;;;18.78;100.00;100357.03;5012616;28;21088;-52
2021/06/24 08:01:30;;;;;;;0.40;0.20;;;;;;;19.28;100.00;100355.66;5011371;28;20515;-53
2021/06/24 08:03:57;;;;;;;0.50;0.40;;;;;;;18.96;100.00;100362.22;5012905;28;20456;-53
2021/06/24 08:06:23;;;;;;;0.50;0.40;;;;;;;19.22;100.00;100354.25;5012637;28;20452;-52
2021/06/24 08:08:50;;;;;;;0.40;0.20;;;;;;;19.12;100.00;100354.91;5012382;28;20456;-52
2021/06/24 08:11:17;;;;;;;0.40;0.20;;;;;;;19.29;100.00;100354.69;5012733;28;20515;-53
2021/06/24 08:13:44;;;;;;;0.50;0.47;;;;;;;18.97;100.00;100354.03;5012572;28;20784;-52
2021/06/24 08:16:11;;;;;;;0.40;0.20;;;;;;;19.05;100.00;100359.84;5011020;28;20507;-52
2021/06/24 08:18:37;;;;;;;0.40;0.20;;;;;;;19.22;100.00;100356.06;5012334;28;20969;-52
2021/06/24 08:21:06;;;;;;;1.47;0.80;;;;;;;19.28;100.00;100360.19;5012619;28;20554;-53
2021/06/24 08:23:32;;;;;;;2.53;1.77;;;;;;;19.18;100.00;100362.59;5012299;28;20437;-53
2021/06/24 08:25:59;;;;;;;2.43;2.23;;;;;;;19.12;100.00;100361.16;5012662;28;20454;-52
2021/06/24 08:28:26;;;;;;;0.40;0.27;;;;;;;19.41;100.00;100361.16;5012302;28;20476;-52
2021/06/24 08:30:55;;;;;;;2.00;1.90;;;;;;;19.55;100.00;100371.94;5012429;28;20832;-53
2021/06/24 08:33:22;;;;;;;0.40;0.30;;;;;;;19.33;100.00;100369.75;5012209;28;20518;-53
2021/06/24 08:35:48;;;;;;;0.40;0.27;;;;;;;19.64;100.00;100365.97;5012553;28;20427;-52
2021/06/24 08:38:15;;;;;;;0.43;0.20;;;;;;;19.59;100.00;100370.78;5012138;28;20468;-52
2021/06/24 08:40:46;;;;;;;0.40;0.20;;;;;;;19.22;100.00;100370.41;5000870;28;20463;-53
2021/06/24 08:43:13;;;;;;;0.40;0.20;;;;;;;19.36;100.00;100365.97;4984100;28;20491;-52
2021/06/24 08:45:40;;;;;;;0.40;0.20;;;;;;;19.61;100.00;100376.97;5012280;28;20453;-53
2021/06/24 08:48:16;;;;;;;0.50;0.30;;;;;;;19.45;100.00;100376.16;5010068;28;20836;-52
2021/06/24 08:50:50;;;;;;;0.83;0.83;;;;;;;18.97;100.00;100383.69;5011959;28;20485;-52
2021/06/24 08:53:19;;;;;;;0.40;0.27;;;;;;;19.07;100.00;100384.84;4988262;28;20885;-53
2021/06/24 08:55:50;;;;;;;0.40;0.20;;;;;;;18.88;100.00;100379.72;5011787;28;20431;-53
2021/06/24 08:58:17;;;;;;;0.50;0.30;;;;;;;18.89;100.00;100383.28;5012187;28;20445;-52
2021/06/24 09:00:44;;;;;;;0.40;0.30;;;;;;;18.87;100.00;100387.91;4987489;28;20986;-53
2021/06/24 09:03:24;;;;;;;0.40;0.20;;;;;;;18.83;100.00;100400.69;5001604;28;20503;-52
2021/06/24 09:05:58;;;;;;;0.53;0.50;;;;;;;19.11;100.00;100399.00;5011761;28;20848;-52
2021/06/24 09:08:38;;;;;;;0.40;0.20;;;;;;;18.95;100.00;100401.78;5011899;28;20530;-52
2021/06/24 09:11:13;;;;;;;7.53;1.43;;;;;;;18.87;100.00;100407.63;5011878;28;20502;-52
2021/06/24 09:13:40;;;;;;;0.40;0.20;;;;;;;18.62;100.00;100407.31;5011745;28;20484;-53
2021/06/24 09:16:20;;;;;;;0.40;0.20;;;;;;;18.61;100.00;100408.28;5012169;28;20456;-52
2021/06/24 09:18:47;;;;;;;0.50;0.30;;;;;;;18.24;100.00;100413.19;5011420;28;20452;-52
2021/06/24 09:21:23;;;;;;;3.07;2.23;;;;;;;18.31;100.00;100413.66;5012078;28;20932;-52
2021/06/24 09:23:52;;;;;;;0.50;0.47;;;;;;;18.29;100.00;100416.44;5011686;28;20841;-52
2021/06/24 09:26:20;;;;;;;0.60;0.57;;;;;;;18.37;100.00;100415.16;5010548;28;20530;-53
2021/06/24 09:28:50;;;;;;;0.40;0.30;;;;;;;18.22;100.00;100415.06;5014920;28;20449;-52
2021/06/24 09:31:24;;;;;;;0.40;0.30;;;;;;;18.11;100.00;100413.97;5015599;28;20443;-52
2021/06/24 09:33:54;;;;;;;0.40;0.30;;;;;;;18.25;100.00;100420.28;5015683;28;20444;-52
2021/06/24 09:36:51;;;;;;;0.40;0.27;;;;;;;18.31;100.00;100411.84;5015297;28;20452;-53
2021/06/24 09:39:18;;;;;;;0.40;0.20;;;;;;;18.47;100.00;100417.19;4998164;28;20548;-52
2021/06/24 09:42:02;;;;;;;0.60;0.60;;;;;;;18.32;100.00;100420.78;5002138;28;20475;-53
2021/06/24 09:44:30;;;;;;;0.40;0.20;;;;;;;18.23;100.00;100426.72;5014079;28;20419;-52
2021/06/24 09:46:58;;;;;;;0.40;0.20;;;;;;;18.10;100.00;100410.41;5013758;28;20970;-52
2021/06/24 09:49:32;;;;;;;0.53;0.47;;;;;;;18.09;100.00;100416.72;5015154;28;20440;-52
2021/06/24 09:52:00;;;;;;;0.40;0.20;;;;;;;18.02;100.00;100423.44;4993275;28;20466;-52
2021/06/24 09:54:34;;;;;;;0.40;0.20;;;;;;;18.06;100.00;100415.09;5010135;28;20480;-52
2021/06/24 09:57:05;;;;;;;0.50;0.30;;;;;;;17.95;100.00;100412.13;5015365;28;20431;-52
2021/06/24 09:59:40;;;;;;;0.40;0.30;;;;;;;18.01;100.00;100421.69;5014789;28;20473;-52
2021/06/24 10:02:09;;;;;;;0.40;0.20;;;;;;;18.15;100.00;100416.38;5014985;28;20433;-52
2021/06/24 10:04:38;;;;;;;0.40;0.20;;;;;;;18.01;100.00;100416.31;5014829;28;20456;-52
2021/06/24 10:07:09;;;;;;;0.50;0.30;;;;;;;17.98;100.00;100416.50;5014963;28;20435;-52
2021/06/24 10:09:40;;;;;;;10.93;1.17;;;;;;;18.02;100.00;100408.16;5015124;28;20475;-52
2021/06/24 10:12:13;;;;;;;1.13;1.13;;;;;;;18.04;100.00;100408.94;5015353;28;20518;-53
2021/06/24 10:14:43;;;;;;;0.40;0.20;;;;;;;18.35;100.00;100408.00;5013753;28;20526;-52
2021/06/24 10:17:10;;;;;;;0.40;0.20;;;;;;;18.28;100.00;100413.84;5014489;28;20435;-53
2021/06/24 10:19:39;;;;;;;0.40;0.20;;;;;;;18.14;100.00;100408.41;5013589;28;20517;-53
2021/06/24 10:22:19;;;;;;;0.40;0.20;;;;;;;18.26;100.00;100415.78;5014739;28;20465;-52
2021/06/24 10:24:56;;;;;;;0.50;0.50;;;;;;;18.59;100.00;100413.78;5014518;28;20819;-54
2021/06/24 10:27:30;;;;;;;0.40;0.20;;;;;;;18.21;100.00;100410.63;5014540;28;20453;-53
2021/06/24 10:30:17;;;;;;;0.40;0.20;;;;;;;18.22;100.00;100408.81;5014476;28;20513;-53
2021/06/24 10:33:09;;;;;;;0.40;0.20;;;;;;;18.33;100.00;100411.75;5014689;28;20878;-52
2021/06/24 10:35:38;;;;;;;0.60;0.60;;;;;;;18.41;100.00;100405.94;5014357;28;21014;-53
2021/06/24 10:38:06;;;;;;;0.50;0.30;;;;;;;18.62;100.00;100408.19;5013980;28;20481;-53
2021/06/24 10:40:44;;;;;;;6.60;1.47;;;;;;;18.53;100.00;100403.38;5005283;28;20493;-52
2021/06/24 10:43:12;;;;;;;0.60;0.60;;;;;;;18.69;100.00;100402.50;5011167;28;21018;-53
2021/06/24 10:45:41;;;;;;;0.40;0.20;;;;;;;18.66;100.00;100414.31;5014434;28;20426;-53
2021/06/24 10:48:29;;;;;;;0.50;0.40;;;;;;;18.48;100.00;100408.16;5011969;28;20451;-52
2021/06/24 10:51:04;;;;;;;0.40;0.20;;;;;;;18.72;100.00;100407.69;5013920;28;20484;-52
2021/06/24 10:53:35;;;;;;;0.40;0.20;;;;;;;18.71;100.00;100416.72;5014110;28;20941;-52
2021/06/24 10:56:20;;;;;;;0.43;0.33;;;;;;;19.03;100.00;100415.63;5013159;28;20571;-52
2021/06/24 10:58:47;;;;;;;0.40;0.20;;;;;;;18.75;100.00;100418.25;5013887;28;20930;-53
2021/06/24 11:01:14;;;;;;;0.40;0.20;;;;;;;18.91;100.00;100410.97;5013794;28;20997;-52
2021/06/24 11:03:43;;;;;;;0.40;0.20;;;;;;;18.62;100.00;100410.88;5012656;28;20488;-52
2021/06/24 11:06:23;;;;;;;0.83;0.83;;;;;;;18.71;100.00;100408.66;5014386;28;20423;-53
2021/06/24 11:09:11;;;;;;;0.40;0.20;;;;;;;18.55;100.00;100412.22;5013703;28;20471;-52
2021/06/24 11:11:41;;;;;;;0.40;0.20;;;;;;;18.78;100.00;100404.63;5013758;28;20543;-53
2021/06/24 11:14:08;;;;;;;0.40;0.20;;;;;;;18.56;100.00;100403.19;5014051;28;20533;-52
2021/06/24 11:16:36;;;;;;;0.40;0.20;;;;;;;18.63;100.00;100403.69;5013773;28;20456;-53
2021/06/24 11:19:08;;;;;;;0.40;0.30;;;;;;;18.77;100.00;100408.25;4988365;28;20465;-53
2021/06/24 11:21:35;;;;;;;0.87;0.87;;;;;;;18.81;100.00;100408.00;5013338;28;20541;-53
2021/06/24 11:24:07;;;;;;;0.77;0.40;;;;;;;19.00;100.00;100410.44;5013796;28;20543;-53